Time;durP1;ratioP1;P1;durP2;ratioP2;P2;SDS_P1;SDS_P2;PMS_P1;PMS_P2;Temp;Humidity;BMP_temperature;BMP_pressure;BME280_temperature;BME280_humidity;BME280_pressure;Samples;Min_cycle;Max_cycle;Signal;HPM_P1;HPM_P2
2024/03/31 00:00:03;;;;;;;13.07;2.13;;;;;;;;;;4935057;29;20042;-65
2024/03/31 00:02:38;;;;;;;11.60;1.17;;;;;;;;;;4934847;28;20461;-66
2024/03/31 00:05:05;;;;;;;10.75;1.08;;;;;;;;;;4932950;29;20416;-65
2024/03/31 00:07:31;;;;;;;3.53;1.40;;;;;;;;;;4933358;29;20051;-65
2024/03/31 00:09:57;;;;;;;8.75;1.75;;;;;;;;;;4931353;29;20044;-65
2024/03/31 00:12:24;;;;;;;7.10;1.88;;;;;;;;;;4931978;29;20047;-65
2024/03/31 00:14:50;;;;;;;11.85;1.40;;;;;;;;;;4932724;29;20050;-65
2024/03/31 00:17:16;;;;;;;11.32;2.17;;;;;;;;;;4931188;29;20040;-65
2024/03/31 00:19:43;;;;;;;13.45;2.22;;;;;;;;;;4933158;28;20052;-65
2024/03/31 00:22:10;;;;;;;14.25;2.20;;;;;;;;;;4933359;29;20051;-65
2024/03/31 00:24:36;;;;;;;14.90;2.10;;;;;;;;;;4933958;29;20051;-65
2024/03/31 00:27:03;;;;;;;9.73;1.73;;;;;;;;;;4931946;29;20059;-65
2024/03/31 00:29:29;;;;;;;13.82;2.42;;;;;;;;;;4945735;28;20810;-65
2024/03/31 00:31:56;;;;;;;15.18;2.95;;;;;;;;;;4933862;29;20031;-65
2024/03/31 00:34:22;;;;;;;10.95;1.63;;;;;;;;;;4946804;28;20110;-66
2024/03/31 00:36:48;;;;;;;7.75;1.35;;;;;;;;;;4947261;28;20052;-64
2024/03/31 00:39:15;;;;;;;12.93;2.33;;;;;;;;;;4933573;29;20047;-66
2024/03/31 00:41:41;;;;;;;9.13;1.70;;;;;;;;;;4931739;29;20050;-66
2024/03/31 00:44:07;;;;;;;9.70;1.35;;;;;;;;;;4944568;28;20059;-65
2024/03/31 00:46:33;;;;;;;10.00;2.17;;;;;;;;;;4932512;28;20074;-66
2024/03/31 00:49:00;;;;;;;11.02;1.40;;;;;;;;;;4947357;28;20117;-66
2024/03/31 00:51:26;;;;;;;10.15;1.85;;;;;;;;;;4932665;28;20496;-66
2024/03/31 00:53:52;;;;;;;11.65;2.58;;;;;;;;;;4948868;28;20043;-66
2024/03/31 00:56:18;;;;;;;10.35;1.45;;;;;;;;;;4949268;28;20059;-66
2024/03/31 00:58:44;;;;;;;9.90;1.45;;;;;;;;;;4934475;29;20057;-65
2024/03/31 01:01:13;;;;;;;5.25;1.05;;;;;;;;;;4930495;28;20052;-65
2024/03/31 01:03:39;;;;;;;17.63;1.63;;;;;;;;;;4948982;28;20376;-66
2024/03/31 01:06:12;;;;;;;8.68;1.52;;;;;;;;;;4930940;29;20295;-65
2024/03/31 01:08:38;;;;;;;12.07;1.35;;;;;;;;;;4931194;29;20074;-65
2024/03/31 01:11:06;;;;;;;8.98;1.83;;;;;;;;;;4943961;28;20036;-66
2024/03/31 01:13:33;;;;;;;9.90;1.35;;;;;;;;;;4928992;29;20055;-65
2024/03/31 01:16:04;;;;;;;8.15;1.20;;;;;;;;;;4928145;29;20048;-66
2024/03/31 01:18:33;;;;;;;11.55;1.38;;;;;;;;;;4945522;28;20054;-66
2024/03/31 01:21:01;;;;;;;15.93;1.70;;;;;;;;;;4946591;28;20050;-65
2024/03/31 01:23:33;;;;;;;13.75;2.05;;;;;;;;;;4930748;29;20032;-65
2024/03/31 01:26:01;;;;;;;15.18;2.08;;;;;;;;;;4946156;28;20051;-66
2024/03/31 01:28:33;;;;;;;6.13;1.10;;;;;;;;;;4925904;29;20054;-66
2024/03/31 01:30:59;;;;;;;10.43;1.40;;;;;;;;;;4934840;28;20513;-66
2024/03/31 01:33:26;;;;;;;7.95;1.30;;;;;;;;;;4933182;29;20040;-66
2024/03/31 01:35:52;;;;;;;9.63;1.33;;;;;;;;;;4936714;29;20058;-66
2024/03/31 01:38:18;;;;;;;7.60;1.52;;;;;;;;;;4935615;29;20478;-66
2024/03/31 01:40:44;;;;;;;11.73;1.50;;;;;;;;;;4930505;29;20047;-66
2024/03/31 01:43:11;;;;;;;10.63;2.72;;;;;;;;;;4936712;28;20048;-65
2024/03/31 01:45:37;;;;;;;12.57;1.38;;;;;;;;;;4945710;29;20051;-66
2024/03/31 01:48:04;;;;;;;12.20;1.50;;;;;;;;;;4932871;29;20612;-66
2024/03/31 01:50:30;;;;;;;10.38;1.90;;;;;;;;;;4933480;29;20063;-65
2024/03/31 01:52:56;;;;;;;9.43;1.60;;;;;;;;;;4947522;28;20157;-65
2024/03/31 01:55:22;;;;;;;9.75;1.27;;;;;;;;;;4933160;29;20039;-66
2024/03/31 01:57:48;;;;;;;12.90;1.90;;;;;;;;;;4934425;29;20063;-67
2024/03/31 02:00:14;;;;;;;10.02;1.35;;;;;;;;;;4930065;29;20522;-66
2024/03/31 02:02:46;;;;;;;14.32;1.33;;;;;;;;;;4933081;29;20047;-66
2024/03/31 02:05:13;;;;;;;8.57;1.35;;;;;;;;;;4946553;28;20036;-66
2024/03/31 02:07:39;;;;;;;11.63;1.65;;;;;;;;;;4918475;29;20043;-66
2024/03/31 02:10:06;;;;;;;6.25;1.83;;;;;;;;;;4934982;29;20054;-66
2024/03/31 02:12:35;;;;;;;11.52;1.55;;;;;;;;;;4952060;28;20051;-65
2024/03/31 02:15:01;;;;;;;9.90;1.43;;;;;;;;;;4952547;28;20031;-66
2024/03/31 02:17:27;;;;;;;12.10;1.42;;;;;;;;;;4952525;28;20306;-66
2024/03/31 02:19:53;;;;;;;12.82;1.40;;;;;;;;;;4946419;29;20055;-65
2024/03/31 02:22:19;;;;;;;8.27;1.80;;;;;;;;;;4934525;28;20396;-66
2024/03/31 02:24:45;;;;;;;8.43;1.55;;;;;;;;;;4937278;29;20062;-65
2024/03/31 02:27:12;;;;;;;9.70;1.50;;;;;;;;;;4935830;29;20055;-66
2024/03/31 02:29:42;;;;;;;12.35;1.50;;;;;;;;;;4953406;28;20058;-66
2024/03/31 02:32:08;;;;;;;11.02;1.75;;;;;;;;;;4951338;28;20040;-66
2024/03/31 02:34:34;;;;;;;6.80;1.73;;;;;;;;;;4938487;29;20066;-66
2024/03/31 02:37:01;;;;;;;13.32;2.75;;;;;;;;;;4933203;29;20043;-65
2024/03/31 02:39:27;;;;;;;13.77;2.85;;;;;;;;;;4934350;29;20044;-66
2024/03/31 02:41:53;;;;;;;19.30;5.07;;;;;;;;;;4947842;28;20048;-66
2024/03/31 02:44:19;;;;;;;14.20;3.75;;;;;;;;;;4947944;28;20058;-65
2024/03/31 02:46:45;;;;;;;15.88;4.80;;;;;;;;;;4948917;29;20043;-65
2024/03/31 02:49:12;;;;;;;15.48;4.10;;;;;;;;;;4950437;28;20054;-66
2024/03/31 02:51:38;;;;;;;18.85;4.68;;;;;;;;;;4936179;28;20052;-66
2024/03/31 02:54:04;;;;;;;19.40;4.70;;;;;;;;;;4932977;29;20059;-66
2024/03/31 02:56:30;;;;;;;12.48;2.50;;;;;;;;;;4935593;29;20055;-66
2024/03/31 02:58:56;;;;;;;13.15;2.88;;;;;;;;;;4951267;28;20070;-66
2024/03/31 03:01:22;;;;;;;13.52;2.00;;;;;;;;;;4931802;29;20047;-66
2024/03/31 03:03:48;;;;;;;8.38;2.05;;;;;;;;;;4948175;28;20047;-67
2024/03/31 03:06:15;;;;;;;11.50;1.63;;;;;;;;;;4933396;29;20154;-66
2024/03/31 03:08:41;;;;;;;13.95;1.80;;;;;;;;;;4935606;29;20048;-67
2024/03/31 03:11:12;;;;;;;12.90;2.05;;;;;;;;;;4931542;29;20424;-66
2024/03/31 03:13:40;;;;;;;11.65;1.73;;;;;;;;;;4933702;29;20031;-66
2024/03/31 03:16:06;;;;;;;12.90;2.33;;;;;;;;;;4935577;29;20056;-66
2024/03/31 03:18:34;;;;;;;8.27;1.58;;;;;;;;;;4936323;29;20427;-65
2024/03/31 03:21:00;;;;;;;12.32;2.53;;;;;;;;;;4950136;28;20051;-65
2024/03/31 03:23:26;;;;;;;11.80;2.55;;;;;;;;;;4932504;29;20514;-65
2024/03/31 03:25:54;;;;;;;15.75;2.50;;;;;;;;;;4932116;29;20036;-66
2024/03/31 03:28:20;;;;;;;13.48;2.35;;;;;;;;;;4950961;28;20111;-65
2024/03/31 03:30:47;;;;;;;11.90;2.03;;;;;;;;;;4932297;29;20040;-65
2024/03/31 03:33:14;;;;;;;7.50;1.50;;;;;;;;;;4935917;29;20040;-65
2024/03/31 03:35:41;;;;;;;13.88;2.20;;;;;;;;;;4951642;28;20039;-64
2024/03/31 03:38:09;;;;;;;9.77;1.92;;;;;;;;;;4948213;28;20047;-65
2024/03/31 03:40:35;;;;;;;14.98;1.88;;;;;;;;;;4947616;28;20039;-65
2024/03/31 03:43:02;;;;;;;7.38;1.63;;;;;;;;;;4948151;28;20043;-65
2024/03/31 03:45:29;;;;;;;6.20;1.60;;;;;;;;;;4949460;28;20515;-65
2024/03/31 03:47:55;;;;;;;14.98;2.03;;;;;;;;;;4947440;29;20400;-65
2024/03/31 03:50:21;;;;;;;8.70;2.00;;;;;;;;;;4946296;28;20365;-65
2024/03/31 03:52:48;;;;;;;8.30;1.67;;;;;;;;;;4950047;28;20133;-66
2024/03/31 03:55:14;;;;;;;7.85;1.48;;;;;;;;;;4927625;29;20415;-66
2024/03/31 03:57:40;;;;;;;15.45;1.80;;;;;;;;;;4948505;29;20416;-65
2024/03/31 04:00:07;;;;;;;9.68;2.13;;;;;;;;;;4949634;28;20047;-65
2024/03/31 04:02:41;;;;;;;5.85;1.40;;;;;;;;;;4932489;28;20044;-65
2024/03/31 04:05:09;;;;;;;11.48;1.48;;;;;;;;;;4948082;28;20043;-66
2024/03/31 04:07:35;;;;;;;6.05;1.65;;;;;;;;;;4933633;28;20146;-66
2024/03/31 04:10:01;;;;;;;10.98;2.30;;;;;;;;;;4931470;28;20047;-66
2024/03/31 04:12:27;;;;;;;12.52;2.38;;;;;;;;;;4916465;29;20115;-65
2024/03/31 04:14:54;;;;;;;13.93;1.80;;;;;;;;;;4913642;29;20066;-65
2024/03/31 04:17:20;;;;;;;7.38;1.70;;;;;;;;;;4931264;29;20380;-66
2024/03/31 04:19:46;;;;;;;10.80;1.92;;;;;;;;;;4931042;29;20047;-65
2024/03/31 04:22:12;;;;;;;12.50;1.83;;;;;;;;;;4933378;29;20063;-66
2024/03/31 04:24:38;;;;;;;8.95;1.25;;;;;;;;;;4947083;28;20051;-65
2024/03/31 04:27:05;;;;;;;11.52;1.65;;;;;;;;;;4919894;29;20035;-65
2024/03/31 04:29:31;;;;;;;16.95;1.50;;;;;;;;;;4952788;28;20058;-65
2024/03/31 04:31:58;;;;;;;13.52;1.45;;;;;;;;;;4935236;29;20159;-67
2024/03/31 04:34:28;;;;;;;8.82;1.58;;;;;;;;;;4935916;29;20035;-65
2024/03/31 04:36:56;;;;;;;11.45;1.92;;;;;;;;;;4934317;29;20048;-65
2024/03/31 04:39:24;;;;;;;12.75;1.70;;;;;;;;;;4945233;28;20042;-66
2024/03/31 04:41:53;;;;;;;13.48;2.08;;;;;;;;;;4947998;28;20380;-65
2024/03/31 04:44:20;;;;;;;17.27;2.35;;;;;;;;;;4932550;29;20035;-64
2024/03/31 04:46:50;;;;;;;7.72;2.20;;;;;;;;;;4931215;29;20055;-66
2024/03/31 04:49:18;;;;;;;10.80;1.85;;;;;;;;;;4948742;28;20050;-66
2024/03/31 04:51:50;;;;;;;11.60;2.35;;;;;;;;;;4914095;29;20039;-65
2024/03/31 04:54:19;;;;;;;16.67;2.97;;;;;;;;;;4946825;28;20404;-65
2024/03/31 04:56:48;;;;;;;8.75;1.75;;;;;;;;;;4931315;29;20048;-65
2024/03/31 04:59:17;;;;;;;8.27;1.67;;;;;;;;;;4950045;28;20063;-65
2024/03/31 05:01:43;;;;;;;14.10;2.30;;;;;;;;;;4929828;29;20047;-66
2024/03/31 05:04:10;;;;;;;9.43;1.73;;;;;;;;;;4930906;29;20124;-66
2024/03/31 05:06:37;;;;;;;9.50;1.48;;;;;;;;;;4931525;29;20133;-66
2024/03/31 05:09:03;;;;;;;9.07;1.75;;;;;;;;;;4931144;29;20050;-63
2024/03/31 05:11:29;;;;;;;10.77;2.25;;;;;;;;;;4946224;29;20066;-63
2024/03/31 05:13:56;;;;;;;6.93;1.70;;;;;;;;;;4946741;28;20036;-63
2024/03/31 05:16:22;;;;;;;5.75;1.83;;;;;;;;;;4934192;29;20032;-62
2024/03/31 05:18:51;;;;;;;7.30;2.00;;;;;;;;;;4949553;28;20070;-63
2024/03/31 05:21:17;;;;;;;12.02;1.90;;;;;;;;;;4932225;29;20042;-63
2024/03/31 05:23:46;;;;;;;7.90;1.63;;;;;;;;;;4928146;29;20500;-63
2024/03/31 05:26:15;;;;;;;9.10;2.80;;;;;;;;;;4948940;29;20050;-62
2024/03/31 05:28:44;;;;;;;11.02;2.40;;;;;;;;;;4931452;29;20512;-63
2024/03/31 05:31:11;;;;;;;8.68;2.55;;;;;;;;;;4948401;28;20370;-63
2024/03/31 05:33:59;;;;;;;6.82;1.95;;;;;;;;;;4931387;29;20043;-63
2024/03/31 05:36:25;;;;;;;11.95;1.98;;;;;;;;;;4932175;29;20036;-64
2024/03/31 05:38:51;;;;;;;8.85;1.73;;;;;;;;;;4931881;28;20047;-64
2024/03/31 05:41:20;;;;;;;12.05;2.50;;;;;;;;;;4915972;29;20629;-61
2024/03/31 05:43:46;;;;;;;11.00;2.65;;;;;;;;;;4947725;28;20535;-62
2024/03/31 05:46:12;;;;;;;9.80;2.95;;;;;;;;;;4931403;29;20047;-62
2024/03/31 05:48:38;;;;;;;11.85;2.60;;;;;;;;;;4944706;28;20077;-63
2024/03/31 05:51:05;;;;;;;10.27;2.20;;;;;;;;;;4929594;29;20035;-63
2024/03/31 05:53:33;;;;;;;8.00;1.90;;;;;;;;;;4930691;29;20047;-63
2024/03/31 05:56:01;;;;;;;15.25;2.83;;;;;;;;;;4934257;29;20051;-63
2024/03/31 05:58:28;;;;;;;9.05;2.75;;;;;;;;;;4949724;28;20051;-62
2024/03/31 06:00:54;;;;;;;8.05;3.17;;;;;;;;;;4925213;29;20040;-63
2024/03/31 06:03:24;;;;;;;11.85;3.28;;;;;;;;;;4944985;28;20048;-63
2024/03/31 06:05:50;;;;;;;12.05;2.70;;;;;;;;;;4931125;29;20044;-63
2024/03/31 06:08:16;;;;;;;18.65;3.97;;;;;;;;;;4947610;28;20416;-62
2024/03/31 06:10:43;;;;;;;8.20;3.22;;;;;;;;;;4947119;28;20168;-63
2024/03/31 06:13:09;;;;;;;9.55;3.25;;;;;;;;;;4947262;28;20034;-63
2024/03/31 06:15:35;;;;;;;14.77;2.53;;;;;;;;;;4929519;29;20043;-63
2024/03/31 06:18:01;;;;;;;9.30;2.17;;;;;;;;;;4931928;29;20050;-62
2024/03/31 06:20:27;;;;;;;8.00;1.95;;;;;;;;;;4944933;28;20032;-63
2024/03/31 06:22:54;;;;;;;10.52;2.30;;;;;;;;;;4945915;29;20450;-63
2024/03/31 06:25:20;;;;;;;8.07;1.58;;;;;;;;;;4946497;29;20395;-63
2024/03/31 06:27:46;;;;;;;10.25;2.28;;;;;;;;;;4929826;29;20043;-64
2024/03/31 06:30:12;;;;;;;16.05;2.67;;;;;;;;;;4949798;28;20031;-66
2024/03/31 06:32:38;;;;;;;12.45;3.05;;;;;;;;;;4942732;28;20063;-62
2024/03/31 06:35:04;;;;;;;9.60;2.60;;;;;;;;;;4931656;29;20403;-63
2024/03/31 06:37:31;;;;;;;10.60;2.38;;;;;;;;;;4945995;28;20504;-64
2024/03/31 06:39:59;;;;;;;13.57;3.38;;;;;;;;;;4946005;28;20049;-66
2024/03/31 06:42:27;;;;;;;15.30;3.00;;;;;;;;;;4932457;29;20612;-65
2024/03/31 06:44:54;;;;;;;12.25;3.60;;;;;;;;;;4944469;29;20036;-65
2024/03/31 06:47:20;;;;;;;16.40;3.47;;;;;;;;;;4947329;28;20047;-66
2024/03/31 06:49:46;;;;;;;14.90;3.65;;;;;;;;;;4932778;29;20058;-63
2024/03/31 06:52:13;;;;;;;15.93;3.00;;;;;;;;;;4935662;28;20530;-63
2024/03/31 06:54:39;;;;;;;14.05;2.70;;;;;;;;;;4936247;29;20056;-64
2024/03/31 06:57:07;;;;;;;9.02;3.63;;;;;;;;;;4954775;28;20043;-64
2024/03/31 06:59:33;;;;;;;19.60;4.05;;;;;;;;;;4917239;29;20048;-64
2024/03/31 07:01:59;;;;;;;13.32;3.58;;;;;;;;;;4932548;29;20036;-63
2024/03/31 07:04:25;;;;;;;24.90;3.92;;;;;;;;;;4932709;29;20043;-63
2024/03/31 07:06:52;;;;;;;10.60;3.03;;;;;;;;;;4949606;28;20044;-63
2024/03/31 07:09:19;;;;;;;14.80;4.20;;;;;;;;;;4931521;29;20046;-64
2024/03/31 07:11:46;;;;;;;15.23;3.67;;;;;;;;;;4946161;28;20579;-65
2024/03/31 07:14:12;;;;;;;12.77;3.35;;;;;;;;;;4934033;29;20050;-64
2024/03/31 07:16:41;;;;;;;24.55;3.47;;;;;;;;;;4949547;28;20090;-65
2024/03/31 07:19:07;;;;;;;22.15;5.00;;;;;;;;;;4934659;29;20044;-64
2024/03/31 07:21:34;;;;;;;22.10;4.10;;;;;;;;;;4937713;28;20117;-64
2024/03/31 07:24:00;;;;;;;24.63;4.55;;;;;;;;;;4933204;29;20107;-64
2024/03/31 07:26:26;;;;;;;16.15;4.40;;;;;;;;;;4955678;28;20046;-64
2024/03/31 07:28:54;;;;;;;30.27;6.43;;;;;;;;;;4935760;29;20043;-64
2024/03/31 07:31:20;;;;;;;19.08;3.97;;;;;;;;;;4933752;29;20419;-64
2024/03/31 07:33:47;;;;;;;28.30;4.30;;;;;;;;;;4948002;28;20047;-63
2024/03/31 07:36:13;;;;;;;22.33;5.13;;;;;;;;;;4949151;28;20175;-64
2024/03/31 07:38:39;;;;;;;24.30;4.75;;;;;;;;;;4934365;28;20070;-63
2024/03/31 07:41:05;;;;;;;24.90;5.57;;;;;;;;;;4933780;29;20039;-64
2024/03/31 07:43:31;;;;;;;27.52;4.50;;;;;;;;;;4935745;29;20043;-63
2024/03/31 07:45:57;;;;;;;27.10;4.85;;;;;;;;;;4933658;28;20051;-63
2024/03/31 07:48:23;;;;;;;15.93;3.88;;;;;;;;;;4933485;29;20055;-64
2024/03/31 07:50:49;;;;;;;26.85;5.72;;;;;;;;;;4935703;29;20059;-64
2024/03/31 07:53:15;;;;;;;24.70;5.07;;;;;;;;;;4933863;29;20044;-65
2024/03/31 07:55:41;;;;;;;20.05;4.57;;;;;;;;;;4934446;29;20052;-64
2024/03/31 07:58:07;;;;;;;16.52;3.60;;;;;;;;;;4934802;28;20051;-64
2024/03/31 08:00:33;;;;;;;16.50;3.67;;;;;;;;;;4951112;28;20039;-63
2024/03/31 08:02:59;;;;;;;19.17;3.85;;;;;;;;;;4933019;29;20050;-65
2024/03/31 08:05:27;;;;;;;22.98;3.70;;;;;;;;;;4932462;29;20115;-64
2024/03/31 08:07:53;;;;;;;18.08;3.95;;;;;;;;;;4934711;29;20044;-65
2024/03/31 08:10:19;;;;;;;47.30;9.90;;;;;;;;;;4927368;29;20047;-64
2024/03/31 08:12:45;;;;;;;21.17;5.55;;;;;;;;;;4929942;29;20048;-65
2024/03/31 08:15:12;;;;;;;22.65;3.60;;;;;;;;;;4929939;29;20511;-65
2024/03/31 08:17:38;;;;;;;24.02;3.42;;;;;;;;;;4931519;29;20054;-65
2024/03/31 08:20:04;;;;;;;24.13;4.57;;;;;;;;;;4924087;29;20062;-59
2024/03/31 08:22:30;;;;;;;23.48;3.88;;;;;;;;;;4924016;28;20516;-65
2024/03/31 08:24:56;;;;;;;19.75;3.70;;;;;;;;;;4926826;29;20035;-63
2024/03/31 08:27:23;;;;;;;16.42;3.55;;;;;;;;;;4929266;29;20043;-63
2024/03/31 08:29:49;;;;;;;18.63;2.88;;;;;;;;;;4929389;29;20043;-64
2024/03/31 08:32:16;;;;;;;14.18;3.28;;;;;;;;;;4927938;29;20040;-63
2024/03/31 08:34:42;;;;;;;20.20;4.05;;;;;;;;;;4945890;28;20055;-65
2024/03/31 08:37:08;;;;;;;19.38;3.00;;;;;;;;;;4943152;28;20051;-65
2024/03/31 08:39:34;;;;;;;22.98;4.03;;;;;;;;;;4932361;29;20047;-63
2024/03/31 08:42:10;;;;;;;15.23;2.80;;;;;;;;;;4929308;29;20412;-63
2024/03/31 08:44:36;;;;;;;26.88;3.30;;;;;;;;;;4929040;29;20040;-64
2024/03/31 08:47:04;;;;;;;16.33;2.55;;;;;;;;;;4930104;29;20499;-63
2024/03/31 08:49:30;;;;;;;14.50;2.63;;;;;;;;;;4928056;29;20044;-65
2024/03/31 08:51:57;;;;;;;16.33;3.03;;;;;;;;;;4926580;29;20059;-65
2024/03/31 08:54:25;;;;;;;18.42;2.88;;;;;;;;;;4931657;29;20046;-66
2024/03/31 08:56:51;;;;;;;18.50;3.53;;;;;;;;;;4952000;28;20051;-65
2024/03/31 08:59:17;;;;;;;23.10;3.85;;;;;;;;;;4944304;28;20090;-65
2024/03/31 09:01:44;;;;;;;24.33;4.32;;;;;;;;;;4930430;29;20039;-66
2024/03/31 09:04:11;;;;;;;16.13;2.65;;;;;;;;;;4948449;28;20487;-67
2024/03/31 09:06:37;;;;;;;17.45;3.10;;;;;;;;;;4928288;29;20059;-65
2024/03/31 09:09:06;;;;;;;18.05;2.78;;;;;;;;;;4928068;29;20428;-62
2024/03/31 09:11:32;;;;;;;17.80;2.53;;;;;;;;;;4924905;29;20039;-64
2024/03/31 09:13:58;;;;;;;16.73;2.70;;;;;;;;;;4927324;29;20035;-64
2024/03/31 09:16:24;;;;;;;25.58;3.03;;;;;;;;;;4932052;28;20048;-63
2024/03/31 09:18:51;;;;;;;18.85;2.72;;;;;;;;;;4926995;28;20042;-64
2024/03/31 09:21:17;;;;;;;21.42;3.08;;;;;;;;;;4931179;29;20052;-64
2024/03/31 09:23:43;;;;;;;18.90;2.78;;;;;;;;;;4928396;29;20040;-65
2024/03/31 09:26:10;;;;;;;23.08;3.08;;;;;;;;;;4931839;29;20044;-65
2024/03/31 09:28:36;;;;;;;20.73;4.38;;;;;;;;;;4926873;28;20419;-63
2024/03/31 09:31:03;;;;;;;24.92;3.47;;;;;;;;;;4930799;28;20056;-64
2024/03/31 09:33:38;;;;;;;18.42;2.55;;;;;;;;;;4930466;29;20048;-65
2024/03/31 09:36:05;;;;;;;28.45;3.20;;;;;;;;;;4931928;28;20044;-64
2024/03/31 09:38:31;;;;;;;20.48;3.28;;;;;;;;;;4932256;29;20066;-65
2024/03/31 09:40:58;;;;;;;29.58;10.18;;;;;;;;;;4928434;29;20703;-66
2024/03/31 09:43:25;;;;;;;22.63;4.18;;;;;;;;;;4933366;29;20058;-64
2024/03/31 09:45:51;;;;;;;21.35;3.05;;;;;;;;;;4935545;29;20040;-65
2024/03/31 09:48:23;;;;;;;19.63;2.83;;;;;;;;;;4933095;29;20058;-64
2024/03/31 09:51:02;;;;;;;25.15;2.90;;;;;;;;;;4933894;29;20040;-64
2024/03/31 09:53:29;;;;;;;18.38;2.92;;;;;;;;;;4934346;29;20039;-62
2024/03/31 09:56:03;;;;;;;22.63;3.15;;;;;;;;;;4942950;28;20044;-64
2024/03/31 09:58:35;;;;;;;30.20;3.97;;;;;;;;;;4931273;29;20040;-63
2024/03/31 10:01:03;;;;;;;23.60;4.10;;;;;;;;;;4928955;29;20047;-67
2024/03/31 10:03:35;;;;;;;10.82;2.75;;;;;;;;;;4930595;29;20055;-63
2024/03/31 10:06:01;;;;;;;26.45;2.85;;;;;;;;;;4933989;29;20035;-63
2024/03/31 10:08:29;;;;;;;24.25;2.80;;;;;;;;;;4933528;29;20052;-64
2024/03/31 10:11:00;;;;;;;29.15;3.53;;;;;;;;;;4947945;28;20056;-64
2024/03/31 10:13:26;;;;;;;19.50;2.55;;;;;;;;;;4933990;29;20376;-63
2024/03/31 10:15:55;;;;;;;26.80;2.72;;;;;;;;;;4931732;29;20407;-64
2024/03/31 10:18:24;;;;;;;19.65;2.78;;;;;;;;;;4930951;29;20052;-64
2024/03/31 10:20:51;;;;;;;22.45;2.63;;;;;;;;;;4934365;28;20052;-64
2024/03/31 10:23:21;;;;;;;13.63;1.98;;;;;;;;;;4945168;29;20067;-63
2024/03/31 10:25:50;;;;;;;12.13;1.90;;;;;;;;;;4935115;29;20047;-64
2024/03/31 10:28:17;;;;;;;16.50;2.33;;;;;;;;;;4953798;28;20056;-64
2024/03/31 10:30:44;;;;;;;17.15;2.28;;;;;;;;;;4935003;29;20046;-64
2024/03/31 10:33:10;;;;;;;12.32;1.80;;;;;;;;;;4934946;28;20071;-63
2024/03/31 10:35:38;;;;;;;21.27;2.25;;;;;;;;;;4951391;28;20046;-64
2024/03/31 10:38:09;;;;;;;17.35;2.50;;;;;;;;;;4935178;29;20492;-64
2024/03/31 10:40:36;;;;;;;27.10;2.88;;;;;;;;;;4934536;29;20058;-63
2024/03/31 10:43:03;;;;;;;17.13;2.40;;;;;;;;;;4943161;28;20047;-64
2024/03/31 10:45:30;;;;;;;14.80;1.58;;;;;;;;;;4938773;29;20040;-64
2024/03/31 10:47:56;;;;;;;10.43;1.90;;;;;;;;;;4947738;28;20417;-64
2024/03/31 10:50:26;;;;;;;17.10;2.13;;;;;;;;;;4937944;28;20044;-64
2024/03/31 10:52:53;;;;;;;17.17;1.67;;;;;;;;;;4939271;29;20399;-64
2024/03/31 10:55:20;;;;;;;21.90;2.50;;;;;;;;;;4934424;29;20043;-64
2024/03/31 10:57:57;;;;;;;21.30;1.75;;;;;;;;;;4935184;29;20412;-64
2024/03/31 11:00:24;;;;;;;19.95;1.80;;;;;;;;;;4934714;28;20062;-64
2024/03/31 11:02:51;;;;;;;20.13;1.77;;;;;;;;;;4948148;28;20052;-63
2024/03/31 11:05:20;;;;;;;23.48;1.88;;;;;;;;;;4933678;29;20051;-63
2024/03/31 11:07:47;;;;;;;16.35;1.77;;;;;;;;;;4936725;29;20047;-64
2024/03/31 11:10:15;;;;;;;19.10;2.50;;;;;;;;;;4936119;29;20056;-64
2024/03/31 11:12:45;;;;;;;15.23;2.28;;;;;;;;;;4935870;28;20052;-64
2024/03/31 11:15:13;;;;;;;13.07;1.95;;;;;;;;;;4949457;29;20031;-64
2024/03/31 11:17:43;;;;;;;20.27;3.03;;;;;;;;;;4929928;29;20576;-64
2024/03/31 11:20:12;;;;;;;20.70;2.63;;;;;;;;;;4933775;29;20035;-64
2024/03/31 11:22:38;;;;;;;15.57;2.00;;;;;;;;;;4933648;29;20044;-65
2024/03/31 11:25:08;;;;;;;16.30;1.83;;;;;;;;;;4936723;29;20606;-64
2024/03/31 11:27:34;;;;;;;;;;;;;;;;;;4934380;29;20039;-63
2024/03/31 11:30:02;;;;;;;23.63;2.33;;;;;;;;;;4935373;29;19922;-63
2024/03/31 11:32:30;;;;;;;17.27;1.85;;;;;;;;;;4932607;29;20051;-64
2024/03/31 11:34:57;;;;;;;23.48;2.45;;;;;;;;;;4933310;29;20032;-61
2024/03/31 11:37:24;;;;;;;18.50;2.35;;;;;;;;;;4935576;29;20394;-63
2024/03/31 11:39:57;;;;;;;26.40;2.80;;;;;;;;;;4931967;29;20046;-64
2024/03/31 11:42:25;;;;;;;15.35;2.08;;;;;;;;;;4933541;29;20511;-64
2024/03/31 11:44:52;;;;;;;19.67;2.30;;;;;;;;;;4948694;28;20031;-63
2024/03/31 11:47:18;;;;;;;22.92;2.42;;;;;;;;;;4933928;29;20040;-63
2024/03/31 11:49:44;;;;;;;23.15;3.67;;;;;;;;;;4938182;29;20443;-64
2024/03/31 11:52:11;;;;;;;23.17;3.25;;;;;;;;;;4949589;28;20051;-64
2024/03/31 11:54:37;;;;;;;24.17;3.90;;;;;;;;;;4934347;29;20039;-63
2024/03/31 11:57:03;;;;;;;19.55;2.08;;;;;;;;;;4934673;29;20043;-64
2024/03/31 11:59:30;;;;;;;19.80;2.30;;;;;;;;;;4932558;29;20048;-64
2024/03/31 12:02:00;;;;;;;18.40;2.08;;;;;;;;;;4931293;29;20050;-64
2024/03/31 12:04:27;;;;;;;26.30;2.63;;;;;;;;;;4929722;29;20058;-64
2024/03/31 12:06:53;;;;;;;15.57;1.90;;;;;;;;;;4948461;29;20032;-64
2024/03/31 12:09:21;;;;;;;24.63;2.42;;;;;;;;;;4934753;29;20039;-63
2024/03/31 12:11:48;;;;;;;25.48;2.60;;;;;;;;;;4936383;29;20403;-64
2024/03/31 12:14:14;;;;;;;17.00;1.67;;;;;;;;;;4934087;28;20055;-64
2024/03/31 12:16:43;;;;;;;13.68;1.75;;;;;;;;;;4936479;29;20056;-64
2024/03/31 12:19:10;;;;;;;14.05;2.70;;;;;;;;;;4947750;28;20043;-63
2024/03/31 12:21:37;;;;;;;17.30;1.85;;;;;;;;;;4947764;29;20036;-64
2024/03/31 12:24:04;;;;;;;12.10;2.70;;;;;;;;;;4936335;29;20040;-63
2024/03/31 12:26:30;;;;;;;16.77;2.42;;;;;;;;;;4934013;29;20047;-62
2024/03/31 12:28:57;;;;;;;13.23;1.65;;;;;;;;;;4931909;29;20604;-64
2024/03/31 12:31:25;;;;;;;19.38;1.92;;;;;;;;;;4932971;29;20059;-63
2024/03/31 12:33:51;;;;;;;14.30;1.88;;;;;;;;;;4948674;28;20042;-64
2024/03/31 12:36:18;;;;;;;14.35;1.60;;;;;;;;;;4933697;29;20052;-63
2024/03/31 12:38:45;;;;;;;21.13;2.30;;;;;;;;;;4934631;29;20036;-64
2024/03/31 12:41:12;;;;;;;18.73;2.58;;;;;;;;;;4932795;29;20067;-63
2024/03/31 12:43:38;;;;;;;11.48;2.08;;;;;;;;;;4936221;29;20055;-63
2024/03/31 12:46:14;;;;;;;15.82;2.00;;;;;;;;;;4935302;29;20040;-63
2024/03/31 12:48:44;;;;;;;18.20;2.17;;;;;;;;;;4934100;29;20508;-64
2024/03/31 12:51:21;;;;;;;18.45;2.28;;;;;;;;;;4932281;29;20055;-62
2024/03/31 12:53:47;;;;;;;21.25;1.92;;;;;;;;;;4947990;28;20051;-63
2024/03/31 12:56:15;;;;;;;16.35;2.58;;;;;;;;;;4932815;29;20138;-63
2024/03/31 12:58:41;;;;;;;11.60;1.90;;;;;;;;;;4931855;29;20052;-64
2024/03/31 13:01:07;;;;;;;15.15;1.63;;;;;;;;;;4930648;29;20043;-64
2024/03/31 13:03:36;;;;;;;16.55;2.58;;;;;;;;;;4931982;29;20055;-63
2024/03/31 13:06:03;;;;;;;19.42;1.58;;;;;;;;;;4949651;28;20048;-63
2024/03/31 13:08:29;;;;;;;15.18;1.80;;;;;;;;;;4935969;29;20458;-64
2024/03/31 13:10:56;;;;;;;13.25;2.50;;;;;;;;;;4933819;29;20055;-64
2024/03/31 13:13:22;;;;;;;13.45;2.63;;;;;;;;;;4936013;28;20048;-64
2024/03/31 13:15:48;;;;;;;12.88;2.15;;;;;;;;;;4932703;29;20046;-64
2024/03/31 13:18:14;;;;;;;13.07;1.98;;;;;;;;;;4932281;29;20047;-64
2024/03/31 13:20:40;;;;;;;17.33;2.50;;;;;;;;;;4935155;29;20492;-65
2024/03/31 13:23:06;;;;;;;15.95;2.15;;;;;;;;;;4931091;29;20357;-64
2024/03/31 13:25:32;;;;;;;12.43;1.75;;;;;;;;;;4932194;29;20424;-63
2024/03/31 13:27:59;;;;;;;16.50;1.83;;;;;;;;;;4932127;29;20610;-63
2024/03/31 13:30:26;;;;;;;18.73;1.80;;;;;;;;;;4947703;28;20044;-63
2024/03/31 13:32:52;;;;;;;8.10;1.58;;;;;;;;;;4932594;29;20059;-64
2024/03/31 13:35:18;;;;;;;10.00;1.27;;;;;;;;;;4933509;29;20032;-63
2024/03/31 13:37:45;;;;;;;18.60;2.80;;;;;;;;;;4932867;29;20035;-64
2024/03/31 13:40:12;;;;;;;13.02;2.60;;;;;;;;;;4932380;28;20047;-64
2024/03/31 13:42:44;;;;;;;15.60;1.70;;;;;;;;;;4931303;29;20051;-64
2024/03/31 13:45:13;;;;;;;13.48;1.98;;;;;;;;;;4932483;29;20067;-63
2024/03/31 13:47:40;;;;;;;17.27;1.90;;;;;;;;;;4932271;29;20040;-64
2024/03/31 13:50:06;;;;;;;9.07;1.48;;;;;;;;;;4931002;29;20134;-63
2024/03/31 13:52:32;;;;;;;13.13;1.90;;;;;;;;;;4935121;29;20040;-64
2024/03/31 13:54:58;;;;;;;15.27;1.95;;;;;;;;;;4932623;29;20044;-64
2024/03/31 13:57:26;;;;;;;11.40;2.03;;;;;;;;;;4933287;29;20420;-64
2024/03/31 13:59:52;;;;;;;12.95;1.85;;;;;;;;;;4931975;29;20387;-64
2024/03/31 14:02:18;;;;;;;12.00;1.75;;;;;;;;;;4934839;29;20055;-65
2024/03/31 14:04:44;;;;;;;17.33;2.05;;;;;;;;;;4935978;29;20055;-64
2024/03/31 14:07:11;;;;;;;9.00;1.58;;;;;;;;;;4937600;29;20164;-65
2024/03/31 14:09:37;;;;;;;14.43;1.58;;;;;;;;;;4936851;29;20566;-64
2024/03/31 14:12:03;;;;;;;9.77;1.30;;;;;;;;;;4935625;29;20051;-64
2024/03/31 14:14:30;;;;;;;12.57;1.30;;;;;;;;;;4935750;29;20050;-65
2024/03/31 14:16:59;;;;;;;13.88;1.30;;;;;;;;;;4935844;29;20036;-63
2024/03/31 14:19:25;;;;;;;6.30;1.10;;;;;;;;;;4940971;29;20054;-64
2024/03/31 14:21:51;;;;;;;11.00;1.35;;;;;;;;;;4936177;29;20047;-64
2024/03/31 14:24:19;;;;;;;7.47;1.00;;;;;;;;;;4935379;29;20035;-64
2024/03/31 14:26:45;;;;;;;6.50;1.25;;;;;;;;;;4936786;29;20066;-65
2024/03/31 14:29:11;;;;;;;10.05;1.25;;;;;;;;;;4951484;28;20059;-65
2024/03/31 14:31:37;;;;;;;7.82;0.90;;;;;;;;;;4936969;29;20055;-64